Time;durP1;ratioP1;P1;durP2;ratioP2;P2;SDS_P1;SDS_P2;PMS_P1;PMS_P2;Temp;Humidity;BMP_temperature;BMP_pressure;BME280_temperature;BME280_humidity;BME280_pressure;Samples;Min_cycle;Max_cycle;Signal;HPM_P1;HPM_P2
2021/12/26 00:00:31;;;;;;;25.80;6.20;;;13.70;99.90;;;;;;5094736;28;20122;-74
2021/12/26 00:02:58;;;;;;;28.17;7.55;;;13.70;99.90;;;;;;5095076;28;20028;-74
2021/12/26 00:05:26;;;;;;;25.25;6.78;;;13.70;99.90;;;;;;5095272;28;20126;-74
2021/12/26 00:07:52;;;;;;;20.92;6.55;;;13.60;99.90;;;;;;5095185;28;20128;-73
2021/12/26 00:10:21;;;;;;;23.50;7.47;;;13.50;99.90;;;;;;5094871;28;20475;-74
2021/12/26 00:12:49;;;;;;;23.27;7.35;;;13.60;99.90;;;;;;5094629;28;20464;-74
2021/12/26 00:15:16;;;;;;;21.50;7.45;;;13.50;99.90;;;;;;5094522;28;20042;-74
2021/12/26 00:17:42;;;;;;;30.50;7.80;;;13.40;99.90;;;;;;5094657;28;20376;-74
2021/12/26 00:20:11;;;;;;;31.85;6.82;;;13.40;99.90;;;;;;5095078;28;20032;-74
2021/12/26 00:22:38;;;;;;;27.90;6.63;;;13.40;99.90;;;;;;5094883;28;20024;-74
2021/12/26 00:25:05;;;;;;;29.17;6.85;;;13.30;99.90;;;;;;5094595;28;20024;-74
2021/12/26 00:27:32;;;;;;;24.63;7.40;;;13.40;99.90;;;;;;5094498;28;20052;-74
2021/12/26 00:30:22;;;;;;;28.00;7.13;;;13.30;99.90;;;;;;5094729;28;20032;-74
2021/12/26 00:32:49;;;;;;;32.67;6.80;;;13.30;99.90;;;;;;5094416;28;20443;-74
2021/12/26 00:35:17;;;;;;;30.42;6.97;;;13.40;99.90;;;;;;5109747;28;20027;-74
2021/12/26 00:37:43;;;;;;;23.88;5.97;;;13.30;99.90;;;;;;5115153;28;20024;-74
2021/12/26 00:40:11;;;;;;;26.38;6.55;;;13.30;99.90;;;;;;5114651;28;20179;-74
2021/12/26 00:42:37;;;;;;;31.33;7.05;;;13.30;99.90;;;;;;5115196;28;20016;-74
2021/12/26 00:45:05;;;;;;;17.73;6.53;;;13.20;99.90;;;;;;5114534;28;20119;-74
2021/12/26 00:47:33;;;;;;;27.10;6.05;;;13.20;99.90;;;;;;5114655;28;20753;-75
2021/12/26 00:50:00;;;;;;;22.98;6.53;;;13.30;99.90;;;;;;5114641;28;20036;-74
2021/12/26 00:52:26;;;;;;;;;;;13.30;99.90;;;;;;5114858;28;20027;-74
2021/12/26 00:54:53;;;;;;;19.77;5.63;;;13.30;99.90;;;;;;5114850;28;20326;-74
2021/12/26 00:57:20;;;;;;;21.80;5.57;;;13.30;99.90;;;;;;5114383;28;20429;-75
2021/12/26 00:59:45;;;;;;;;;;;13.30;99.90;;;;;;5114517;28;20046;-75
2021/12/26 01:02:12;;;;;;;22.47;5.87;;;13.20;99.90;;;;;;5114555;28;19911;-74
2021/12/26 01:04:39;;;;;;;24.75;6.25;;;13.20;99.90;;;;;;5114207;28;20451;-74
2021/12/26 01:07:14;;;;;;;23.15;5.75;;;13.20;99.90;;;;;;5113893;28;20053;-74
2021/12/26 01:09:42;;;;;;;29.73;6.20;;;13.10;99.90;;;;;;5113718;28;20031;-73
2021/12/26 01:12:13;;;;;;;26.35;6.07;;;13.10;99.90;;;;;;5113559;28;20083;-75
2021/12/26 01:14:58;;;;;;;24.27;6.55;;;13.20;99.90;;;;;;5114143;28;20073;-74
2021/12/26 01:17:26;;;;;;;26.58;6.25;;;13.20;99.90;;;;;;5113612;28;20050;-74
2021/12/26 01:19:54;;;;;;;24.83;6.43;;;13.30;99.90;;;;;;5113620;28;20162;-74
2021/12/26 01:22:21;;;;;;;21.58;7.15;;;13.20;99.90;;;;;;5113782;28;20111;-74
2021/12/26 01:24:48;;;;;;;25.50;7.15;;;13.10;99.90;;;;;;5113324;28;20024;-74
2021/12/26 01:27:15;;;;;;;;;;;13.10;99.90;;;;;;5113826;28;20027;-74
2021/12/26 01:29:41;;;;;;;20.67;5.82;;;13.10;99.90;;;;;;5094912;28;20359;-73
2021/12/26 01:32:07;;;;;;;19.02;5.40;;;13.00;99.90;;;;;;5113369;28;20027;-73
2021/12/26 01:34:47;;;;;;;21.13;5.65;;;13.00;99.90;;;;;;5113178;28;20019;-74
2021/12/26 01:37:13;;;;;;;27.95;6.25;;;13.10;99.90;;;;;;5113039;28;20020;-73
2021/12/26 01:39:40;;;;;;;24.30;6.13;;;13.00;99.90;;;;;;5113192;28;20032;-73
2021/12/26 01:42:09;;;;;;;28.17;6.82;;;13.10;99.90;;;;;;5113000;28;20378;-75
2021/12/26 01:44:35;;;;;;;19.65;6.18;;;13.10;99.90;;;;;;5112922;28;20050;-74
2021/12/26 01:47:02;;;;;;;20.13;6.07;;;13.20;99.90;;;;;;5112946;28;20019;-73
2021/12/26 01:49:29;;;;;;;22.20;5.57;;;13.20;99.90;;;;;;5113002;28;20111;-74
2021/12/26 01:51:58;;;;;;;28.15;6.05;;;13.20;99.90;;;;;;5113214;28;20023;-74
2021/12/26 01:54:43;;;;;;;19.88;5.75;;;13.20;99.90;;;;;;5113225;28;20028;-74
2021/12/26 01:57:11;;;;;;;20.52;6.18;;;13.20;99.90;;;;;;5113367;28;20505;-74
2021/12/26 01:59:38;;;;;;;21.55;5.65;;;13.30;99.90;;;;;;5113458;28;20138;-74
2021/12/26 02:02:05;;;;;;;23.85;6.03;;;13.20;99.90;;;;;;5113557;28;20420;-74
2021/12/26 02:04:31;;;;;;;21.10;5.53;;;13.10;99.90;;;;;;5113249;28;20061;-74
2021/12/26 02:07:02;;;;;;;22.58;6.45;;;13.10;99.90;;;;;;5113010;28;20032;-74
2021/12/26 02:09:28;;;;;;;18.35;5.22;;;13.00;99.90;;;;;;5112861;28;20027;-74
2021/12/26 02:11:54;;;;;;;27.30;5.30;;;13.00;99.90;;;;;;5112610;28;20106;-73
2021/12/26 02:14:20;;;;;;;21.25;6.55;;;13.00;99.90;;;;;;5112692;28;20024;-75
2021/12/26 02:16:47;;;;;;;21.70;6.33;;;13.00;99.90;;;;;;5112957;28;20099;-74
2021/12/26 02:19:13;;;;;;;23.67;5.82;;;13.00;99.90;;;;;;5112635;28;20024;-74
2021/12/26 02:29:43;;;;;;;23.40;6.22;;;12.80;99.90;;;;;;5112906;28;20058;-74
2021/12/26 02:32:10;;;;;;;18.63;7.45;;;12.70;99.90;;;;;;5112548;28;20108;-74
2021/12/26 02:34:36;;;;;;;;;;;12.60;99.90;;;;;;5112943;28;20316;-74
2021/12/26 02:37:03;;;;;;;26.30;7.68;;;12.60;99.90;;;;;;5112351;28;19903;-73
2021/12/26 02:39:32;;;;;;;17.83;6.63;;;12.50;99.90;;;;;;5112751;28;20020;-74
2021/12/26 02:41:59;;;;;;;17.92;7.13;;;12.50;99.90;;;;;;5112043;28;20031;-74
2021/12/26 02:44:25;;;;;;;20.75;7.85;;;12.50;99.90;;;;;;5112147;28;20027;-74
2021/12/26 02:46:52;;;;;;;22.13;7.60;;;12.50;99.90;;;;;;5112147;28;20471;-74
2021/12/26 02:49:27;;;;;;;19.77;7.15;;;12.50;99.90;;;;;;5093671;28;20020;-75
2021/12/26 02:51:53;;;;;;;23.45;8.23;;;12.50;99.90;;;;;;5112361;28;20154;-73
2021/12/26 02:54:23;;;;;;;19.33;7.03;;;12.50;99.90;;;;;;5112137;28;20447;-73
2021/12/26 02:56:50;;;;;;;21.85;8.00;;;12.50;99.90;;;;;;5112153;28;20024;-74
2021/12/26 02:59:16;;;;;;;18.23;8.15;;;12.50;99.90;;;;;;5112426;28;20023;-75
2021/12/26 03:01:42;;;;;;;26.40;8.32;;;12.50;99.90;;;;;;5111927;28;20116;-75
2021/12/26 03:04:09;;;;;;;26.07;9.00;;;12.50;99.90;;;;;;5093627;28;20422;-75
2021/12/26 03:09:06;;;;;;;25.00;8.32;;;12.50;99.90;;;;;;5112076;28;20020;-73
2021/12/26 03:11:32;;;;;;;22.23;8.45;;;12.60;99.90;;;;;;5112051;28;20081;-74
2021/12/26 03:14:00;;;;;;;20.90;7.97;;;12.60;99.90;;;;;;5111989;28;20046;-74
2021/12/26 03:16:26;;;;;;;22.73;7.72;;;12.60;99.90;;;;;;5111749;28;20111;-75
2021/12/26 03:18:57;;;;;;;20.17;8.00;;;12.60;99.90;;;;;;5112225;28;20026;-74
2021/12/26 03:21:23;;;;;;;20.35;6.85;;;12.60;99.90;;;;;;5111666;28;20030;-74
2021/12/26 03:23:49;;;;;;;23.53;8.77;;;12.60;99.90;;;;;;5112224;28;20386;-73
2021/12/26 03:26:15;;;;;;;24.93;8.83;;;12.60;99.90;;;;;;5111756;28;20024;-75
2021/12/26 03:28:41;;;;;;;20.80;8.47;;;12.50;99.90;;;;;;5112094;28;20028;-75
2021/12/26 03:31:07;;;;;;;24.93;8.97;;;12.50;99.90;;;;;;5111744;28;20096;-74
2021/12/26 03:33:33;;;;;;;21.77;8.43;;;12.50;99.90;;;;;;5115176;28;20044;-73
2021/12/26 03:36:00;;;;;;;20.85;8.52;;;12.50;99.90;;;;;;5115739;28;20031;-73
2021/12/26 03:38:28;;;;;;;28.15;8.00;;;12.40;99.90;;;;;;5116185;28;20486;-74
2021/12/26 03:40:55;;;;;;;21.60;8.57;;;12.40;99.90;;;;;;5115563;28;20028;-74
2021/12/26 03:43:22;;;;;;;;;;;12.40;99.90;;;;;;5116251;28;20020;-74
2021/12/26 03:45:49;;;;;;;;;;;12.40;99.90;;;;;;5116243;28;19911;-74
2021/12/26 03:48:17;;;;;;;19.50;7.80;;;12.40;99.90;;;;;;5115457;28;19904;-74
2021/12/26 03:50:44;;;;;;;20.30;6.68;;;12.40;99.90;;;;;;5115715;28;20036;-75
2021/12/26 03:53:11;;;;;;;22.52;7.25;;;12.50;99.90;;;;;;5115354;28;20531;-74
2021/12/26 03:55:37;;;;;;;27.00;7.90;;;12.50;99.90;;;;;;5115346;28;20031;-74
2021/12/26 03:58:04;;;;;;;21.95;7.80;;;12.50;99.90;;;;;;5115623;28;20124;-75
2021/12/26 04:00:30;;;;;;;21.52;7.32;;;12.50;99.90;;;;;;5115249;28;20043;-75
2021/12/26 04:02:57;;;;;;;18.05;7.60;;;12.50;99.90;;;;;;5115358;28;20024;-74
2021/12/26 04:05:24;;;;;;;19.70;7.53;;;12.50;99.90;;;;;;5115305;28;20102;-74
2021/12/26 04:07:50;;;;;;;23.92;6.95;;;12.50;99.90;;;;;;5115348;28;20098;-75
2021/12/26 04:10:18;;;;;;;19.98;7.05;;;12.40;99.90;;;;;;5115062;28;20028;-73
2021/12/26 04:12:47;;;;;;;18.17;6.88;;;12.40;99.90;;;;;;5115474;28;20020;-73
2021/12/26 04:15:17;;;;;;;19.38;7.00;;;12.50;99.90;;;;;;5114793;28;20102;-74
2021/12/26 04:17:43;;;;;;;25.38;7.50;;;12.50;99.90;;;;;;5097029;28;20107;-74
2021/12/26 04:20:10;;;;;;;17.27;7.38;;;12.40;99.90;;;;;;5114649;28;20031;-73
2021/12/26 04:22:36;;;;;;;25.02;7.28;;;12.40;99.90;;;;;;5114814;28;20023;-75
2021/12/26 04:25:04;;;;;;;20.30;6.80;;;12.50;99.90;;;;;;5114671;28;20072;-73
2021/12/26 04:27:30;;;;;;;19.30;6.63;;;12.50;99.90;;;;;;5114634;28;20277;-74
2021/12/26 04:29:56;;;;;;;22.25;6.22;;;12.50;99.90;;;;;;5114476;28;20027;-74
2021/12/26 04:32:22;;;;;;;22.10;6.50;;;12.60;99.90;;;;;;5114600;28;20028;-74
2021/12/26 04:34:48;;;;;;;18.83;7.00;;;12.60;99.90;;;;;;5096259;28;20027;-75
2021/12/26 04:37:14;;;;;;;13.63;6.22;;;12.50;99.90;;;;;;5114946;28;20459;-73
2021/12/26 04:39:41;;;;;;;15.67;6.17;;;12.50;99.90;;;;;;5114868;28;20148;-73
2021/12/26 04:42:07;;;;;;;18.30;6.53;;;12.50;99.90;;;;;;5114424;28;20035;-74
2021/12/26 04:44:33;;;;;;;19.20;6.60;;;12.50;99.90;;;;;;5114052;28;20266;-74
2021/12/26 04:46:59;;;;;;;18.27;7.17;;;12.40;99.90;;;;;;5114801;28;20467;-74
2021/12/26 04:49:25;;;;;;;20.10;6.53;;;12.30;99.90;;;;;;5114647;28;20020;-74
2021/12/26 04:51:52;;;;;;;19.40;6.30;;;12.30;99.90;;;;;;5114459;28;20024;-75
2021/12/26 04:54:18;;;;;;;20.73;6.25;;;12.40;99.90;;;;;;5114723;28;20024;-74
2021/12/26 04:56:44;;;;;;;20.05;5.88;;;12.30;99.90;;;;;;5114530;28;20108;-74
2021/12/26 04:59:10;;;;;;;26.47;5.70;;;12.30;99.90;;;;;;5114138;28;20495;-74
2021/12/26 05:01:36;;;;;;;13.10;5.80;;;12.30;99.90;;;;;;5113883;28;20141;-74
2021/12/26 05:04:03;;;;;;;18.95;5.22;;;12.40;99.90;;;;;;5114146;28;20315;-75
2021/12/26 05:06:29;;;;;;;22.15;6.25;;;12.40;99.90;;;;;;5114038;28;20079;-75
2021/12/26 05:09:20;;;;;;;25.83;6.07;;;12.50;99.90;;;;;;5114058;28;20038;-74
2021/12/26 05:11:46;;;;;;;19.55;5.80;;;12.50;99.90;;;;;;5113980;28;20059;-74
2021/12/26 05:14:12;;;;;;;17.47;5.00;;;12.60;99.90;;;;;;5113965;28;20016;-75
2021/12/26 05:16:51;;;;;;;23.52;5.32;;;12.60;99.90;;;;;;5113813;28;20472;-75
2021/12/26 05:19:17;;;;;;;15.45;5.03;;;12.70;99.90;;;;;;5113795;28;20058;-74
2021/12/26 05:21:43;;;;;;;11.97;5.00;;;12.70;99.90;;;;;;5114173;28;20024;-74
2021/12/26 05:24:09;;;;;;;13.57;4.57;;;12.70;99.90;;;;;;5113960;28;20062;-74
2021/12/26 05:26:35;;;;;;;17.33;5.45;;;12.80;99.90;;;;;;5113806;28;20030;-74
2021/12/26 05:29:01;;;;;;;17.05;5.40;;;12.70;99.90;;;;;;5095281;28;20482;-74
2021/12/26 05:31:27;;;;;;;13.90;4.57;;;12.70;99.90;;;;;;5113495;28;20043;-73
2021/12/26 05:33:53;;;;;;;25.93;6.10;;;12.70;99.90;;;;;;5113969;28;20420;-74
2021/12/26 05:36:19;;;;;;;14.30;5.57;;;12.70;99.90;;;;;;5113368;28;20023;-75
2021/12/26 05:38:46;;;;;;;16.53;5.30;;;12.60;99.90;;;;;;5113401;28;20118;-75
2021/12/26 05:41:12;;;;;;;20.17;6.22;;;12.60;99.90;;;;;;5095050;28;20483;-74
2021/12/26 05:43:38;;;;;;;16.05;5.82;;;12.50;99.90;;;;;;5113701;28;20419;-74
2021/12/26 05:46:04;;;;;;;14.43;5.03;;;12.40;99.90;;;;;;5113617;28;20031;-75
2021/12/26 05:48:30;;;;;;;22.03;5.73;;;12.40;99.90;;;;;;5113413;28;20559;-74
2021/12/26 05:50:56;;;;;;;14.93;4.47;;;12.50;99.90;;;;;;5113035;28;20285;-74
2021/12/26 05:53:22;;;;;;;17.52;4.97;;;12.60;99.90;;;;;;5113446;28;20015;-73
2021/12/26 05:55:48;;;;;;;16.48;5.38;;;12.60;99.90;;;;;;5112125;28;20033;-73
2021/12/26 05:58:14;;;;;;;15.60;4.63;;;12.60;99.90;;;;;;5113133;28;20173;-73
2021/12/26 06:00:40;;;;;;;17.13;4.90;;;12.60;99.90;;;;;;5094378;28;20503;-74
2021/12/26 06:03:06;;;;;;;16.20;5.23;;;12.60;99.90;;;;;;5112945;28;20098;-74
2021/12/26 06:05:32;;;;;;;17.37;4.70;;;12.60;99.90;;;;;;5112844;28;20032;-74
2021/12/26 06:07:58;;;;;;;18.73;4.60;;;12.80;99.90;;;;;;5112797;28;20048;-74
2021/12/26 06:10:24;;;;;;;17.03;4.17;;;12.80;99.90;;;;;;5113128;28;20055;-74
2021/12/26 06:12:50;;;;;;;17.80;4.30;;;13.00;99.90;;;;;;5112986;28;20091;-73
2021/12/26 06:15:16;;;;;;;13.27;3.63;;;13.10;99.90;;;;;;5112937;28;20556;-73
2021/12/26 06:17:42;;;;;;;25.33;4.30;;;13.10;99.90;;;;;;5113182;28;20019;-72
2021/12/26 06:20:14;;;;;;;21.00;4.82;;;13.10;99.90;;;;;;5111993;28;20486;-72
2021/12/26 06:22:44;;;;;;;16.98;4.50;;;13.10;99.90;;;;;;5112365;28;20129;-72
2021/12/26 06:25:11;;;;;;;18.65;4.43;;;13.10;99.90;;;;;;5112822;28;20046;-71
2021/12/26 06:27:38;;;;;;;16.80;4.70;;;13.10;99.90;;;;;;5112741;28;20321;-72
2021/12/26 06:30:06;;;;;;;19.20;4.97;;;13.10;99.90;;;;;;5093976;28;20031;-72
2021/12/26 06:32:33;;;;;;;19.48;5.05;;;13.00;99.90;;;;;;5112361;28;20307;-72
2021/12/26 06:35:01;;;;;;;19.92;5.07;;;13.00;99.90;;;;;;5106841;28;20032;-71
2021/12/26 06:37:28;;;;;;;16.17;4.82;;;13.00;99.90;;;;;;5101184;28;20432;-71
2021/12/26 06:39:54;;;;;;;18.95;4.95;;;13.00;99.90;;;;;;5103031;28;20024;-72
2021/12/26 06:42:20;;;;;;;20.57;4.90;;;13.00;99.90;;;;;;5092288;28;20522;-73
2021/12/26 06:44:46;;;;;;;19.45;4.80;;;12.90;99.90;;;;;;5092231;28;20023;-71
2021/12/26 06:47:12;;;;;;;24.50;5.43;;;12.90;99.90;;;;;;5092344;28;20103;-72
2021/12/26 06:49:41;;;;;;;15.90;4.60;;;12.90;99.90;;;;;;5092163;28;20110;-73
2021/12/26 06:52:07;;;;;;;17.60;5.60;;;12.80;99.90;;;;;;5102325;28;20042;-72
2021/12/26 06:54:33;;;;;;;20.08;5.13;;;12.70;99.90;;;;;;5098114;28;20104;-72
2021/12/26 06:57:00;;;;;;;14.33;5.20;;;12.80;99.90;;;;;;5112433;28;20028;-72
2021/12/26 06:59:26;;;;;;;12.40;4.60;;;12.70;99.90;;;;;;5112179;28;20330;-71
2021/12/26 07:01:52;;;;;;;14.70;4.43;;;12.70;99.90;;;;;;5112446;28;20436;-71
2021/12/26 07:04:18;;;;;;;21.67;4.60;;;12.90;99.90;;;;;;5112146;28;20271;-71
2021/12/26 07:06:44;;;;;;;15.48;5.35;;;13.00;99.90;;;;;;5114277;28;20202;-72
2021/12/26 07:09:10;;;;;;;16.50;4.57;;;13.30;99.90;;;;;;5080573;28;20020;-71
2021/12/26 07:11:36;;;;;;;15.67;3.87;;;13.80;99.90;;;;;;5095846;28;20039;-72
2021/12/26 07:14:02;;;;;;;17.03;4.47;;;14.30;99.90;;;;;;5095833;28;20020;-72
2021/12/26 07:16:28;;;;;;;22.17;4.57;;;14.70;99.90;;;;;;5096282;28;20305;-71
2021/12/26 07:18:54;;;;;;;15.80;4.73;;;15.00;99.90;;;;;;5095897;28;20562;-72
2021/12/26 07:21:20;;;;;;;20.90;4.63;;;15.00;99.90;;;;;;5096260;28;20535;-71
2021/12/26 07:23:47;;;;;;;26.80;4.55;;;15.00;99.90;;;;;;5095740;28;20254;-71
2021/12/26 07:26:13;;;;;;;12.85;4.13;;;15.20;99.90;;;;;;5095743;28;20387;-71
2021/12/26 07:28:39;;;;;;;26.52;4.80;;;15.60;99.90;;;;;;5095741;28;20016;-71
2021/12/26 07:31:06;;;;;;;19.33;4.50;;;15.90;99.90;;;;;;5095466;28;20040;-71
2021/12/26 07:33:32;;;;;;;19.50;5.20;;;16.20;99.90;;;;;;5095290;28;20103;-71
2021/12/26 07:35:58;;;;;;;23.95;4.45;;;16.50;99.90;;;;;;5095298;28;20035;-71
2021/12/26 07:38:24;;;;;;;22.67;4.45;;;16.70;99.90;;;;;;5115174;28;20015;-72
2021/12/26 07:40:50;;;;;;;17.98;4.25;;;17.00;99.90;;;;;;5115576;28;20509;-72
2021/12/26 07:43:16;;;;;;;16.98;3.90;;;17.20;99.90;;;;;;5115922;28;20061;-71
2021/12/26 07:45:42;;;;;;;17.08;4.70;;;17.40;99.90;;;;;;5095534;28;20036;-72
2021/12/26 07:48:08;;;;;;;19.83;4.68;;;17.70;99.90;;;;;;5095519;28;20024;-74
2021/12/26 07:50:34;;;;;;;23.05;4.82;;;17.50;99.90;;;;;;5076957;28;20101;-71
2021/12/26 07:53:25;;;;;;;21.45;4.40;;;17.20;99.90;;;;;;5095422;28;20046;-72
2021/12/26 07:55:51;;;;;;;15.65;4.15;;;17.10;99.90;;;;;;5095089;28;20031;-71
2021/12/26 07:58:18;;;;;;;19.83;4.35;;;16.80;99.90;;;;;;5095168;28;20072;-71
2021/12/26 08:00:44;;;;;;;14.35;4.10;;;16.70;99.90;;;;;;5093412;28;20138;-71
2021/12/26 08:03:10;;;;;;;;;;;16.80;99.90;;;;;;5095434;28;20093;-62
2021/12/26 08:05:36;;;;;;;18.70;4.18;;;16.70;99.90;;;;;;5076517;28;20348;-62
2021/12/26 08:08:02;;;;;;;21.30;4.15;;;16.70;99.90;;;;;;5095045;28;20444;-63
2021/12/26 08:10:29;;;;;;;15.85;4.13;;;16.80;99.90;;;;;;5095321;28;20120;-62
2021/12/26 08:12:55;;;;;;;19.25;4.47;;;16.90;99.90;;;;;;5094637;28;20024;-63
2021/12/26 08:15:21;;;;;;;25.25;4.97;;;16.90;99.90;;;;;;5094603;28;20488;-62
2021/12/26 08:17:47;;;;;;;18.63;4.40;;;16.90;99.90;;;;;;5093667;28;20020;-62
2021/12/26 08:20:13;;;;;;;20.40;4.00;;;17.00;99.90;;;;;;5094970;28;20023;-62
2021/12/26 08:22:39;;;;;;;19.77;4.25;;;16.80;99.90;;;;;;5094598;28;20139;-62
2021/12/26 08:25:06;;;;;;;22.83;5.03;;;16.80;99.90;;;;;;5094406;28;20017;-61
2021/12/26 08:27:32;;;;;;;22.55;4.13;;;16.80;99.90;;;;;;5109393;28;20038;-62
2021/12/26 08:30:00;;;;;;;19.48;4.38;;;17.00;99.90;;;;;;5102827;28;20050;-63
2021/12/26 08:32:27;;;;;;;22.60;4.65;;;17.10;99.90;;;;;;5094234;28;20032;-62
2021/12/26 08:34:54;;;;;;;19.10;4.15;;;17.10;99.90;;;;;;5102659;28;20023;-63
2021/12/26 08:37:20;;;;;;;25.05;4.53;;;17.20;99.90;;;;;;5075861;28;20027;-62
2021/12/26 08:39:47;;;;;;;18.83;4.50;;;17.30;99.90;;;;;;5094442;28;20027;-66
2021/12/26 08:42:14;;;;;;;14.55;4.28;;;17.40;99.90;;;;;;5094494;28;20032;-70
2021/12/26 08:44:40;;;;;;;17.15;4.50;;;17.40;99.90;;;;;;5075753;28;20023;-70
2021/12/26 08:47:09;;;;;;;16.83;3.92;;;17.40;99.90;;;;;;5094147;28;20089;-71
2021/12/26 08:49:35;;;;;;;19.23;4.50;;;17.30;99.90;;;;;;5075547;28;20016;-70
2021/12/26 08:52:02;;;;;;;22.77;4.22;;;17.10;99.90;;;;;;5093943;28;20032;-70
2021/12/26 08:54:29;;;;;;;17.65;4.20;;;17.40;99.90;;;;;;5093672;28;20039;-70
2021/12/26 08:56:56;;;;;;;18.80;5.22;;;17.40;99.90;;;;;;5097160;28;20026;-70
2021/12/26 08:59:29;;;;;;;21.95;5.25;;;17.10;99.90;;;;;;5114885;28;20023;-70
2021/12/26 09:01:57;;;;;;;23.30;4.47;;;17.20;99.90;;;;;;5114149;28;20085;-69
2021/12/26 09:04:23;;;;;;;20.05;4.57;;;17.30;99.90;;;;;;5114516;28;20368;-70
2021/12/26 09:06:49;;;;;;;18.27;4.82;;;17.40;99.90;;;;;;5114252;28;20115;-70
2021/12/26 09:09:15;;;;;;;18.90;4.30;;;17.40;99.90;;;;;;5113902;28;20020;-70
2021/12/26 09:11:41;;;;;;;15.18;4.13;;;17.40;99.90;;;;;;5095430;28;20479;-71
2021/12/26 09:14:07;;;;;;;23.60;4.82;;;17.20;99.90;;;;;;5114199;28;20114;-71
2021/12/26 09:16:34;;;;;;;21.05;4.72;;;17.00;99.90;;;;;;5114215;28;20166;-70
2021/12/26 09:19:01;;;;;;;18.20;5.22;;;17.10;99.90;;;;;;5113721;28;20154;-71
2021/12/26 09:21:27;;;;;;;18.17;4.97;;;16.80;99.90;;;;;;5113619;28;20031;-70
2021/12/26 09:23:54;;;;;;;17.00;5.70;;;16.90;99.90;;;;;;5095196;28;20122;-69
2021/12/26 09:26:20;;;;;;;16.60;5.18;;;16.80;99.90;;;;;;5113803;28;20020;-70
2021/12/26 09:28:46;;;;;;;22.48;5.03;;;17.00;99.90;;;;;;5113354;28;20028;-70
2021/12/26 09:31:12;;;;;;;24.88;5.45;;;17.20;99.90;;;;;;5113125;28;20036;-70
2021/12/26 09:33:38;;;;;;;19.30;4.80;;;17.30;99.90;;;;;;5113422;28;20037;-70
2021/12/26 09:36:04;;;;;;;21.30;5.60;;;17.20;99.90;;;;;;5113371;28;20094;-69
2021/12/26 09:38:30;;;;;;;24.27;4.50;;;17.00;99.90;;;;;;5113146;28;20276;-70
2021/12/26 09:40:59;;;;;;;15.18;5.15;;;17.00;99.90;;;;;;5113227;28;20135;-70
2021/12/26 09:43:26;;;;;;;20.17;5.25;;;17.00;99.90;;;;;;5113189;28;20047;-71
2021/12/26 09:45:52;;;;;;;;;;;17.10;99.90;;;;;;5113447;28;20066;-70
2021/12/26 09:48:18;;;;;;;18.35;5.05;;;17.20;99.90;;;;;;5113177;28;19965;-70
2021/12/26 09:50:45;;;;;;;15.25;4.10;;;17.40;99.90;;;;;;5112710;28;20038;-70
2021/12/26 09:53:11;;;;;;;19.77;4.40;;;17.20;99.90;;;;;;5112557;28;20055;-68
2021/12/26 09:55:38;;;;;;;13.60;4.25;;;17.10;99.90;;;;;;5112749;28;20024;-70
2021/12/26 09:58:04;;;;;;;19.77;4.70;;;17.00;99.90;;;;;;5113099;28;20116;-70
2021/12/26 10:00:39;;;;;;;16.38;5.15;;;16.70;99.90;;;;;;5093784;28;20040;-70
2021/12/26 10:03:22;;;;;;;16.37;4.80;;;16.60;99.90;;;;;;5112555;28;20027;-72
2021/12/26 10:06:13;;;;;;;21.40;4.93;;;16.90;99.90;;;;;;5093648;28;20039;-71
2021/12/26 10:08:59;;;;;;;17.70;4.40;;;17.30;99.90;;;;;;5112728;28;20023;-71
2021/12/26 10:11:34;;;;;;;18.10;4.03;;;17.70;99.90;;;;;;5112437;28;20417;-70
2021/12/26 10:14:09;;;;;;;23.92;4.80;;;17.80;99.90;;;;;;5112574;28;20436;-71
2021/12/26 10:16:41;;;;;;;24.23;4.45;;;18.00;99.90;;;;;;5112774;28;20464;-69
2021/12/26 10:19:08;;;;;;;17.10;4.10;;;17.90;99.90;;;;;;5112544;28;20051;-69
2021/12/26 10:21:40;;;;;;;25.48;5.20;;;17.90;99.90;;;;;;5112091;28;20027;-69
2021/12/26 10:24:28;;;;;;;16.27;4.53;;;17.80;99.90;;;;;;5094213;28;20024;-68
2021/12/26 10:26:57;;;;;;;17.42;4.65;;;17.80;99.90;;;;;;5112904;28;20024;-68
2021/12/26 10:29:25;;;;;;;15.60;4.22;;;18.00;99.90;;;;;;5112320;28;20487;-69
2021/12/26 10:31:58;;;;;;;18.70;4.30;;;18.00;99.90;;;;;;5112501;28;20048;-67
2021/12/26 10:34:33;;;;;;;24.60;4.90;;;18.20;99.90;;;;;;5112242;28;20043;-69
2021/12/26 10:37:02;;;;;;;14.45;4.10;;;18.40;99.90;;;;;;5112005;28;20024;-70
2021/12/26 10:39:32;;;;;;;18.63;4.47;;;18.50;99.90;;;;;;5112028;28;20024;-70
2021/12/26 10:42:01;;;;;;;18.17;4.13;;;18.20;99.90;;;;;;5111602;28;20020;-69
2021/12/26 10:44:40;;;;;;;20.10;4.25;;;18.20;99.90;;;;;;5112216;28;20080;-70
2021/12/26 10:47:11;;;;;;;24.60;4.68;;;18.10;99.90;;;;;;5112820;28;20048;-69
2021/12/26 10:49:48;;;;;;;21.90;3.50;;;18.00;99.90;;;;;;5111587;28;20032;-69
2021/12/26 10:52:21;;;;;;;22.00;4.25;;;18.10;99.90;;;;;;5108832;28;20040;-69
2021/12/26 10:54:50;;;;;;;18.52;4.20;;;18.10;99.90;;;;;;5102806;28;20027;-68
2021/12/26 10:57:25;;;;;;;17.45;4.70;;;17.90;99.90;;;;;;5104881;28;20084;-68
2021/12/26 11:00:14;;;;;;;14.20;3.72;;;17.80;99.90;;;;;;5096029;28;20049;-68
2021/12/26 11:03:13;;;;;;;25.23;4.07;;;17.70;99.90;;;;;;5091649;28;20349;-68
2021/12/26 11:05:44;;;;;;;19.30;3.30;;;17.70;99.90;;;;;;5087588;28;20151;-69
2021/12/26 11:08:13;;;;;;;14.60;3.13;;;17.90;99.90;;;;;;5091664;28;20020;-68
2021/12/26 11:10:46;;;;;;;17.13;3.67;;;18.00;99.90;;;;;;5091323;28;20063;-68
2021/12/26 11:13:20;;;;;;;18.50;3.20;;;18.10;99.90;;;;;;5091297;28;20109;-71
2021/12/26 11:15:47;;;;;;;14.43;3.47;;;18.20;99.90;;;;;;5091338;28;20472;-69
2021/12/26 11:18:18;;;;;;;17.38;3.75;;;18.10;99.90;;;;;;5091593;28;20048;-70
2021/12/26 11:20:48;;;;;;;19.20;3.97;;;17.80;99.90;;;;;;5072949;28;20514;-69
2021/12/26 11:23:21;;;;;;;22.70;4.03;;;17.80;99.90;;;;;;5091207;28;20031;-69
2021/12/26 11:26:04;;;;;;;14.30;3.28;;;17.60;99.90;;;;;;5091513;28;20487;-69
2021/12/26 11:28:35;;;;;;;20.02;3.42;;;17.30;99.90;;;;;;5091531;28;20384;-69
2021/12/26 11:31:06;;;;;;;14.75;3.00;;;17.30;99.90;;;;;;5090773;28;20047;-68
2021/12/26 11:33:33;;;;;;;18.23;3.13;;;17.30;99.90;;;;;;5091469;28;20509;-69
2021/12/26 11:36:01;;;;;;;24.67;4.40;;;17.40;99.90;;;;;;5090609;28;20481;-68
2021/12/26 11:38:28;;;;;;;19.83;3.45;;;17.40;99.90;;;;;;5090914;28;20379;-69
2021/12/26 11:41:03;;;;;;;24.13;3.80;;;17.30;99.90;;;;;;5089966;28;20333;-71
2021/12/26 11:43:47;;;;;;;15.10;3.30;;;17.40;99.90;;;;;;5091528;28;20448;-70
2021/12/26 11:46:51;;;;;;;15.98;4.07;;;17.30;99.90;;;;;;5107127;28;20149;-70
2021/12/26 11:49:37;;;;;;;17.85;3.53;;;17.20;99.90;;;;;;5098606;28;20085;-70
2021/12/26 11:52:23;;;;;;;15.98;3.63;;;17.00;99.90;;;;;;5111613;28;20063;-69
2021/12/26 11:55:09;;;;;;;;;;;17.10;99.90;;;;;;5115887;28;20428;-68
2021/12/26 11:58:23;;;;;;;14.77;3.67;;;17.30;99.90;;;;;;5096514;28;19952;-69
2021/12/26 12:00:54;;;;;;;13.10;3.58;;;17.20;99.90;;;;;;5092868;28;20051;-68
2021/12/26 12:03:29;;;;;;;19.90;4.28;;;17.20;99.90;;;;;;5114689;28;20395;-69
2021/12/26 12:05:57;;;;;;;15.07;3.17;;;17.30;99.90;;;;;;5078412;28;20027;-70
2021/12/26 12:08:23;;;;;;;17.15;3.42;;;17.30;99.90;;;;;;5103096;28;20436;-70
2021/12/26 12:10:57;;;;;;;16.30;3.63;;;17.20;99.90;;;;;;5105987;28;20038;-69
2021/12/26 12:13:26;;;;;;;19.08;3.88;;;17.20;99.90;;;;;;5094295;28;20738;-70
2021/12/26 12:16:01;;;;;;;16.10;3.50;;;17.10;99.90;;;;;;5094380;28;20032;-70
2021/12/26 12:18:37;;;;;;;15.73;3.28;;;17.20;99.90;;;;;;5094531;28;20030;-69
2021/12/26 12:21:13;;;;;;;16.33;3.47;;;17.10;99.90;;;;;;5076000;28;20035;-72
2021/12/26 12:23:57;;;;;;;13.35;3.55;;;17.30;99.90;;;;;;5094468;28;20055;-71
2021/12/26 12:26:53;;;;;;;16.85;3.90;;;17.10;99.90;;;;;;5094489;28;20028;-71
2021/12/26 12:29:25;;;;;;;17.45;4.25;;;17.10;99.90;;;;;;5094464;28;20135;-71
2021/12/26 12:32:09;;;;;;;19.35;4.20;;;17.20;99.90;;;;;;5094302;28;20036;-72
2021/12/26 12:34:53;;;;;;;14.32;3.78;;;17.30;99.90;;;;;;5097642;28;20012;-71
2021/12/26 12:37:34;;;;;;;13.98;3.45;;;17.40;99.90;;;;;;5108495;28;20031;-72
2021/12/26 12:40:36;;;;;;;16.50;3.67;;;17.50;99.90;;;;;;5093906;28;20024;-72
2021/12/26 12:43:14;;;;;;;14.57;3.20;;;17.50;99.90;;;;;;5094250;28;20024;-72
2021/12/26 12:45:53;;;;;;;16.38;3.50;;;17.50;99.90;;;;;;5094063;28;20020;-72
2021/12/26 12:48:25;;;;;;;15.05;3.20;;;17.80;99.90;;;;;;5093749;28;20020;-71
2021/12/26 12:50:53;;;;;;;20.83;3.53;;;17.80;99.90;;;;;;5075462;28;20050;-74
2021/12/26 12:53:45;;;;;;;15.13;3.10;;;17.80;99.90;;;;;;5077808;28;20039;-72
2021/12/26 12:56:30;;;;;;;16.45;3.35;;;17.70;99.90;;;;;;5114219;28;20027;-73
2021/12/26 12:59:20;;;;;;;12.23;3.22;;;17.60;99.90;;;;;;5114698;28;20023;-74
2021/12/26 13:01:58;;;;;;;16.83;3.60;;;17.70;99.90;;;;;;5113891;28;20079;-74